Time;durP1;ratioP1;P1;durP2;ratioP2;P2;SDS_P1;SDS_P2;PMS_P1;PMS_P2;Temp;Humidity;BMP_temperature;BMP_pressure;BME280_temperature;BME280_humidity;BME280_pressure;Samples;Min_cycle;Max_cycle;Signal;HPM_P1;HPM_P2
2022/11/19 00:01:14;;;;;;;6.63;5.87;;;;;;;;;;5070378;28;20469;-44
2022/11/19 00:03:40;;;;;;;6.50;5.90;;;;;;;;;;5070996;28;20446;-46
2022/11/19 00:06:08;;;;;;;6.33;5.53;;;;;;;;;;5070599;28;20442;-44
2022/11/19 00:08:34;;;;;;;5.90;5.30;;;;;;;;;;5070269;28;20881;-44
2022/11/19 00:11:05;;;;;;;6.20;5.60;;;;;;;;;;5071197;28;20879;-44
2022/11/19 00:13:31;;;;;;;6.10;5.50;;;;;;;;;;5070688;28;20840;-44
2022/11/19 00:16:02;;;;;;;7.43;5.77;;;;;;;;;;5071140;28;20484;-45
2022/11/19 00:18:28;;;;;;;6.80;6.10;;;;;;;;;;5071028;28;20777;-45
2022/11/19 00:20:55;;;;;;;6.60;6.00;;;;;;;;;;5071265;28;20491;-44
2022/11/19 00:23:21;;;;;;;6.53;5.80;;;;;;;;;;5070872;28;20993;-45
2022/11/19 00:25:47;;;;;;;5.90;5.30;;;;;;;;;;5070918;28;20426;-44
2022/11/19 00:28:13;;;;;;;6.37;5.23;;;;;;;;;;5070973;28;20876;-44
2022/11/19 00:30:39;;;;;;;6.83;6.13;;;;;;;;;;5070904;28;20489;-44
2022/11/19 00:33:06;;;;;;;6.03;5.13;;;;;;;;;;5070539;28;20444;-45
2022/11/19 00:35:32;;;;;;;6.20;5.60;;;;;;;;;;5073733;28;20576;-44
2022/11/19 00:37:58;;;;;;;6.50;5.90;;;;;;;;;;5074401;28;20460;-45
2022/11/19 00:40:24;;;;;;;6.27;5.67;;;;;;;;;;5074771;28;20457;-45
2022/11/19 00:45:35;;;;;;;6.57;5.53;;;;;;;;;;5074207;28;20447;-45
2022/11/19 00:48:01;;;;;;;6.60;5.67;;;;;;;;;;5072895;28;20442;-45
2022/11/19 00:50:29;;;;;;;6.80;6.03;;;;;;;;;;5072699;28;20457;-46
2022/11/19 00:52:55;;;;;;;6.30;5.70;;;;;;;;;;5074722;28;20441;-45
2022/11/19 00:55:21;;;;;;;6.30;5.70;;;;;;;;;;5074561;28;20819;-46
2022/11/19 00:57:47;;;;;;;7.20;6.07;;;;;;;;;;5074417;28;20524;-46
2022/11/19 01:00:13;;;;;;;6.87;6.17;;;;;;;;;;5074660;28;20529;-46
2022/11/19 01:02:39;;;;;;;6.80;6.03;;;;;;;;;;5074433;28;20483;-45
2022/11/19 01:05:06;;;;;;;6.83;6.13;;;;;;;;;;5074362;28;20422;-47
2022/11/19 01:07:33;;;;;;;6.50;5.77;;;;;;;;;;5074023;28;20434;-47
2022/11/19 01:09:59;;;;;;;8.33;6.43;;;;;;;;;;5073897;28;20919;-46
2022/11/19 01:12:25;;;;;;;7.50;6.70;;;;;;;;;;5073968;28;20422;-46
2022/11/19 01:14:51;;;;;;;6.87;6.17;;;;;;;;;;5073800;28;20815;-46
2022/11/19 01:17:17;;;;;;;6.60;5.97;;;;;;;;;;5073860;28;20425;-46
2022/11/19 01:19:43;;;;;;;7.03;6.37;;;;;;;;;;5073601;28;20434;-45
2022/11/19 01:22:09;;;;;;;7.20;6.50;;;;;;;;;;5073673;28;20488;-46
2022/11/19 01:24:37;;;;;;;6.63;5.93;;;;;;;;;;5073768;28;20924;-46
2022/11/19 01:27:03;;;;;;;6.47;5.87;;;;;;;;;;5073535;28;20481;-46
2022/11/19 01:29:29;;;;;;;6.93;6.23;;;;;;;;;;5073240;28;21001;-46
2022/11/19 01:31:55;;;;;;;7.10;6.50;;;;;;;;;;5073782;28;20784;-46
2022/11/19 01:34:21;;;;;;;6.53;5.93;;;;;;;;;;5073615;28;21012;-46
2022/11/19 01:36:47;;;;;;;6.77;6.13;;;;;;;;;;5073582;28;20521;-46
2022/11/19 01:39:13;;;;;;;6.70;6.00;;;;;;;;;;5073814;28;20526;-45
2022/11/19 01:41:40;;;;;;;7.07;6.40;;;;;;;;;;5073070;28;20465;-45
2022/11/19 01:44:07;;;;;;;6.40;5.80;;;;;;;;;;5073688;28;20469;-45
2022/11/19 01:46:34;;;;;;;7.73;6.93;;;;;;;;;;5071884;28;20784;-45
2022/11/19 01:49:01;;;;;;;7.40;6.67;;;;;;;;;;5073454;28;20556;-45
2022/11/19 01:51:30;;;;;;;6.60;6.00;;;;;;;;;;5073549;28;20528;-46
2022/11/19 01:53:57;;;;;;;7.70;6.90;;;;;;;;;;5073275;28;20469;-45
2022/11/19 01:56:24;;;;;;;7.27;6.57;;;;;;;;;;5073242;28;20815;-45
2022/11/19 01:58:54;;;;;;;7.13;6.40;;;;;;;;;;5073211;28;21010;-45
2022/11/19 02:01:20;;;;;;;7.50;6.30;;;;;;;;;;5072614;28;20953;-45
2022/11/19 02:03:46;;;;;;;6.47;5.87;;;;;;;;;;5073085;28;20430;-45
2022/11/19 02:06:13;;;;;;;7.20;6.50;;;;;;;;;;5072377;28;20452;-45
2022/11/19 02:08:40;;;;;;;7.43;6.73;;;;;;;;;;5072008;28;20878;-45
2022/11/19 02:11:14;;;;;;;6.70;6.10;;;;;;;;;;5072983;28;20438;-45
2022/11/19 02:13:42;;;;;;;7.27;6.57;;;;;;;;;;5072996;28;20525;-46
2022/11/19 02:16:12;;;;;;;7.23;6.20;;;;;;;;;;5073026;28;20904;-46
2022/11/19 02:18:45;;;;;;;7.73;6.90;;;;;;;;;;5072712;28;20480;-46
2022/11/19 02:21:16;;;;;;;7.63;6.23;;;;;;;;;;5072979;28;20436;-45
2022/11/19 02:24:00;;;;;;;6.97;6.27;;;;;;;;;;5072799;28;20441;-45
2022/11/19 02:26:44;;;;;;;7.10;6.30;;;;;;;;;;5072732;28;20438;-45
2022/11/19 02:29:15;;;;;;;6.73;6.13;;;;;;;;;;5072947;28;20433;-46
2022/11/19 02:31:47;;;;;;;6.87;6.17;;;;;;;;;;5072787;28;20460;-46
2022/11/19 02:34:15;;;;;;;7.20;6.33;;;;;;;;;;5072581;28;20821;-46
2022/11/19 02:36:44;;;;;;;7.83;6.73;;;;;;;;;;5072934;28;20430;-45
2022/11/19 02:39:15;;;;;;;6.63;5.97;;;;;;;;;;5071645;28;20450;-46
2022/11/19 02:41:45;;;;;;;6.90;6.03;;;;;;;;;;5072463;28;20442;-46
2022/11/19 02:47:04;;;;;;;7.27;6.07;;;;;;;;;;5072201;28;20471;-46
2022/11/19 02:49:32;;;;;;;6.97;6.27;;;;;;;;;;5072228;28;20544;-46
2022/11/19 02:51:59;;;;;;;7.57;6.50;;;;;;;;;;5072290;28;20442;-46
2022/11/19 02:54:25;;;;;;;7.80;6.30;;;;;;;;;;5072159;28;20492;-46
2022/11/19 02:56:52;;;;;;;6.17;5.60;;;;;;;;;;5072184;28;20465;-46
2022/11/19 03:04:54;;;;;;;6.50;5.90;;;;;;;;;;5071893;28;21067;-46
2022/11/19 03:07:21;;;;;;;6.87;6.17;;;;;;;;;;5071473;28;20944;-46
2022/11/19 03:09:50;;;;;;;6.57;5.93;;;;;;;;;;5071635;28;20465;-46
2022/11/19 03:12:22;;;;;;;7.87;6.40;;;;;;;;;;5071874;28;20806;-46
2022/11/19 03:17:47;;;;;;;7.43;6.17;;;;;;;;;;5071885;28;20509;-46
2022/11/19 03:20:18;;;;;;;6.60;6.00;;;;;;;;;;5071781;28;20445;-46
2022/11/19 03:22:48;;;;;;;6.83;6.13;;;;;;;;;;5071801;28;20449;-46
2022/11/19 03:25:16;;;;;;;6.83;6.17;;;;;;;;;;5071806;28;20441;-46
2022/11/19 03:27:44;;;;;;;7.67;6.87;;;;;;;;;;5071458;28;20924;-45
2022/11/19 03:30:12;;;;;;;6.13;5.53;;;;;;;;;;5071584;28;20541;-46
2022/11/19 03:32:40;;;;;;;7.43;6.60;;;;;;;;;;5071499;28;20442;-46
2022/11/19 03:35:09;;;;;;;6.70;6.00;;;;;;;;;;5070758;28;20509;-46
2022/11/19 03:37:37;;;;;;;7.47;6.10;;;;;;;;;;5071304;28;20949;-45
2022/11/19 03:40:05;;;;;;;7.07;6.37;;;;;;;;;;5071710;28;20458;-46
2022/11/19 03:42:32;;;;;;;7.17;6.07;;;;;;;;;;5071495;28;20448;-45
2022/11/19 03:45:00;;;;;;;7.47;6.67;;;;;;;;;;5071526;28;20934;-45
2022/11/19 03:47:31;;;;;;;6.70;5.97;;;;;;;;;;5071422;28;20466;-45
2022/11/19 03:49:59;;;;;;;6.40;5.77;;;;;;;;;;5071287;28;20478;-46
2022/11/19 03:52:26;;;;;;;7.53;6.83;;;;;;;;;;5071265;28;20842;-45
2022/11/19 03:54:52;;;;;;;6.70;5.90;;;;;;;;;;5071191;28;20888;-45
2022/11/19 03:57:19;;;;;;;6.87;6.17;;;;;;;;;;5071189;28;20442;-46
2022/11/19 03:59:45;;;;;;;6.77;6.07;;;;;;;;;;5071206;28;20595;-45
2022/11/19 04:02:12;;;;;;;7.07;5.80;;;;;;;;;;5071260;28;20479;-46
2022/11/19 04:04:38;;;;;;;7.97;6.67;;;;;;;;;;5071231;28;20434;-45
2022/11/19 04:07:09;;;;;;;6.83;6.13;;;;;;;;;;5071371;28;20425;-45
2022/11/19 04:09:37;;;;;;;6.77;6.17;;;;;;;;;;5070631;28;20449;-45
2022/11/19 04:12:03;;;;;;;6.87;6.17;;;;;;;;;;5071202;28;20441;-46
2022/11/19 04:14:29;;;;;;;6.73;6.10;;;;;;;;;;5070925;28;21034;-46
2022/11/19 04:16:56;;;;;;;6.70;6.10;;;;;;;;;;5071393;28;20468;-46
2022/11/19 04:19:22;;;;;;;7.07;6.00;;;;;;;;;;5071126;28;20848;-46
2022/11/19 04:21:48;;;;;;;6.27;5.67;;;;;;;;;;5071244;28;20438;-46
2022/11/19 04:24:14;;;;;;;8.10;6.40;;;;;;;;;;5071061;28;20460;-46
2022/11/19 04:26:42;;;;;;;7.17;6.47;;;;;;;;;;5070943;28;20426;-46
2022/11/19 04:29:08;;;;;;;7.40;6.13;;;;;;;;;;5071013;28;20434;-46
2022/11/19 04:31:34;;;;;;;8.03;6.73;;;;;;;;;;5070938;28;20437;-45
2022/11/19 04:34:00;;;;;;;7.40;6.70;;;;;;;;;;5070843;28;20437;-45
2022/11/19 04:36:26;;;;;;;7.33;6.63;;;;;;;;;;5069392;28;20456;-45
2022/11/19 04:38:52;;;;;;;7.87;6.73;;;;;;;;;;5070833;28;20430;-45
2022/11/19 04:41:18;;;;;;;7.07;6.23;;;;;;;;;;5070726;28;20426;-46
2022/11/19 04:43:45;;;;;;;7.20;6.50;;;;;;;;;;5070795;28;20803;-45
2022/11/19 04:46:11;;;;;;;7.23;6.53;;;;;;;;;;5070878;28;20441;-45
2022/11/19 04:48:37;;;;;;;6.47;5.87;;;;;;;;;;5070583;28;20486;-46
2022/11/19 04:51:03;;;;;;;7.83;6.47;;;;;;;;;;5070683;28;20815;-45
2022/11/19 04:53:29;;;;;;;7.10;6.40;;;;;;;;;;5070675;28;20446;-45
2022/11/19 04:55:55;;;;;;;7.03;6.33;;;;;;;;;;5070711;28;20491;-45
2022/11/19 04:58:22;;;;;;;6.30;5.57;;;;;;;;;;5070569;28;20461;-45
2022/11/19 05:00:49;;;;;;;6.77;5.97;;;;;;;;;;5069694;28;20856;-45
2022/11/19 05:03:15;;;;;;;7.00;6.30;;;;;;;;;;5069355;28;21015;-45
2022/11/19 05:05:41;;;;;;;6.67;5.67;;;;;;;;;;5070407;28;20925;-45
2022/11/19 05:08:07;;;;;;;7.37;6.30;;;;;;;;;;5070499;28;20462;-45
2022/11/19 05:10:33;;;;;;;7.53;6.77;;;;;;;;;;5070526;28;20470;-45
2022/11/19 05:12:59;;;;;;;6.27;5.70;;;;;;;;;;5070651;28;20452;-45
2022/11/19 05:15:25;;;;;;;6.47;5.87;;;;;;;;;;5070520;28;20987;-45
2022/11/19 05:17:52;;;;;;;7.13;6.27;;;;;;;;;;5070544;28;20465;-45
2022/11/19 05:20:18;;;;;;;7.57;6.37;;;;;;;;;;5070500;28;20548;-45
2022/11/19 05:22:44;;;;;;;7.00;6.00;;;;;;;;;;5073604;28;20507;-46
2022/11/19 05:25:10;;;;;;;7.73;6.40;;;;;;;;;;5074132;28;20429;-45
2022/11/19 05:27:37;;;;;;;6.90;6.20;;;;;;;;;;5073887;28;20445;-45
2022/11/19 05:30:03;;;;;;;6.73;6.00;;;;;;;;;;5074041;28;20430;-45
2022/11/19 05:32:29;;;;;;;7.03;6.33;;;;;;;;;;5074136;28;20433;-47
2022/11/19 05:34:56;;;;;;;7.67;6.33;;;;;;;;;;5073311;28;20521;-45
2022/11/19 05:37:22;;;;;;;7.50;6.00;;;;;;;;;;5073094;28;20855;-46
2022/11/19 05:39:48;;;;;;;7.47;6.67;;;;;;;;;;5073244;28;20476;-46
2022/11/19 05:42:14;;;;;;;7.63;6.70;;;;;;;;;;5073750;28;20445;-46
2022/11/19 05:44:40;;;;;;;7.13;6.30;;;;;;;;;;5073503;28;20488;-45
2022/11/19 05:47:06;;;;;;;6.13;5.53;;;;;;;;;;5073839;28;20484;-46
2022/11/19 05:49:32;;;;;;;7.07;6.37;;;;;;;;;;5073102;28;20489;-45
2022/11/19 05:52:00;;;;;;;6.67;5.87;;;;;;;;;;5073541;28;20521;-46
2022/11/19 05:54:26;;;;;;;6.90;6.10;;;;;;;;;;5073476;28;20473;-45
2022/11/19 05:56:52;;;;;;;7.30;6.60;;;;;;;;;;5073301;28;20846;-45
2022/11/19 05:59:19;;;;;;;8.00;6.30;;;;;;;;;;5073508;28;20438;-45
2022/11/19 06:01:45;;;;;;;7.37;6.67;;;;;;;;;;5073296;28;20445;-46
2022/11/19 06:04:11;;;;;;;7.50;6.70;;;;;;;;;;5073332;28;20529;-46
2022/11/19 06:06:37;;;;;;;8.20;7.17;;;;;;;;;;5073103;28;20445;-46
2022/11/19 06:09:04;;;;;;;7.87;6.80;;;;;;;;;;5073292;28;20450;-46
2022/11/19 06:14:15;;;;;;;7.67;6.87;;;;;;;;;;5072824;28;20850;-46
2022/11/19 06:16:42;;;;;;;7.40;6.30;;;;;;;;;;5072910;28;20909;-46
2022/11/19 06:19:08;;;;;;;7.60;6.80;;;;;;;;;;5073161;28;20441;-46
2022/11/19 06:21:34;;;;;;;7.87;5.80;;;;;;;;;;5072870;28;20483;-45
2022/11/19 06:24:00;;;;;;;8.20;6.57;;;;;;;;;;5073033;28;20442;-46
2022/11/19 06:26:28;;;;;;;6.77;5.90;;;;;;;;;;5072663;28;21003;-46
2022/11/19 06:28:55;;;;;;;7.23;6.60;;;;;;;;;;5072882;28;20477;-46
2022/11/19 06:31:21;;;;;;;6.90;6.17;;;;;;;;;;5072867;28;20453;-45
2022/11/19 06:33:47;;;;;;;7.13;6.30;;;;;;;;;;5072471;28;20891;-46
2022/11/19 06:36:13;;;;;;;8.97;6.40;;;;;;;;;;5072747;28;20480;-46
2022/11/19 06:38:39;;;;;;;6.83;5.93;;;;;;;;;;5072586;28;20437;-46
2022/11/19 06:41:05;;;;;;;7.00;6.30;;;;;;;;;;5072736;28;20430;-46
2022/11/19 06:43:33;;;;;;;7.03;6.30;;;;;;;;;;5072713;28;20793;-46
2022/11/19 06:45:59;;;;;;;8.07;6.03;;;;;;;;;;5072195;28;20469;-46
2022/11/19 06:48:25;;;;;;;6.33;5.73;;;;;;;;;;5071983;28;20461;-46
2022/11/19 06:50:51;;;;;;;7.73;6.57;;;;;;;;;;5072054;28;20548;-45
2022/11/19 06:53:17;;;;;;;7.97;6.20;;;;;;;;;;5072426;28;20438;-45
2022/11/19 06:55:43;;;;;;;7.57;6.83;;;;;;;;;;5072037;28;20525;-45
2022/11/19 06:58:09;;;;;;;8.00;7.07;;;;;;;;;;5072183;28;20430;-46
2022/11/19 07:00:36;;;;;;;8.73;7.00;;;;;;;;;;5072009;28;20434;-46
2022/11/19 07:03:02;;;;;;;7.73;6.87;;;;;;;;;;5072051;28;20448;-46
2022/11/19 07:05:28;;;;;;;8.47;7.13;;;;;;;;;;5072124;28;20495;-46
2022/11/19 07:07:54;;;;;;;9.40;8.17;;;;;;;;;;5072075;28;20515;-45
2022/11/19 07:10:20;;;;;;;8.27;7.10;;;;;;;;;;5071766;28;20434;-45
2022/11/19 07:12:46;;;;;;;8.77;7.17;;;;;;;;;;5071040;28;20446;-45
2022/11/19 07:15:12;;;;;;;8.10;7.00;;;;;;;;;;5071057;28;20476;-45
2022/11/19 07:17:41;;;;;;;8.37;7.30;;;;;;;;;;5071891;28;20438;-44
2022/11/19 07:20:08;;;;;;;9.83;7.93;;;;;;;;;;5070341;28;20434;-45
2022/11/19 07:22:34;;;;;;;10.27;7.47;;;;;;;;;;5071521;28;20457;-45
2022/11/19 07:25:00;;;;;;;10.20;7.67;;;;;;;;;;5071696;28;20434;-45
2022/11/19 07:27:26;;;;;;;8.60;7.70;;;;;;;;;;5071472;28;20797;-45
2022/11/19 07:29:52;;;;;;;9.87;7.23;;;;;;;;;;5071345;28;21028;-46
2022/11/19 07:32:18;;;;;;;11.23;7.80;;;;;;;;;;5071631;28;20520;-46
2022/11/19 07:34:45;;;;;;;9.33;7.80;;;;;;;;;;5071408;28;20560;-45
2022/11/19 07:37:11;;;;;;;8.77;7.80;;;;;;;;;;5071501;28;20525;-45
2022/11/19 07:39:37;;;;;;;8.93;7.50;;;;;;;;;;5071235;28;20505;-46
2022/11/19 07:44:48;;;;;;;8.53;7.40;;;;;;;;;;5070874;28;20567;-45
2022/11/19 07:47:14;;;;;;;8.87;7.03;;;;;;;;;;5071230;28;20468;-45
2022/11/19 07:49:40;;;;;;;7.97;7.17;;;;;;;;;;5070873;28;20523;-44
2022/11/19 07:52:07;;;;;;;7.30;6.60;;;;;;;;;;5070887;28;20441;-44
2022/11/19 07:54:33;;;;;;;7.97;6.90;;;;;;;;;;5071433;28;20461;-44
2022/11/19 07:56:59;;;;;;;11.23;9.57;;;;;;;;;;5070436;28;20463;-44
2022/11/19 07:59:26;;;;;;;11.90;10.23;;;;;;;;;;5070994;28;20438;-44
2022/11/19 08:01:52;;;;;;;8.53;7.67;;;;;;;;;;5071175;28;20430;-46
2022/11/19 08:04:18;;;;;;;7.70;6.90;;;;;;;;;;5071276;28;20437;-54
2022/11/19 08:06:44;;;;;;;6.50;5.90;;;;;;;;;;5070966;28;20476;-46
2022/11/19 08:09:12;;;;;;;6.23;4.77;;;;;;;;;;5071190;28;20454;-45
2022/11/19 08:11:39;;;;;;;5.40;4.83;;;;;;;;;;5071295;28;20877;-47
2022/11/19 08:14:05;;;;;;;5.10;4.60;;;;;;;;;;5071164;28;20202;-46
2022/11/19 08:19:17;;;;;;;5.33;4.83;;;;;;;;;;5066678;28;20572;-46
2022/11/19 08:21:44;;;;;;;6.07;5.47;;;;;;;;;;5069328;28;20196;-45
2022/11/19 08:24:12;;;;;;;6.97;5.80;;;;;;;;;;5070716;28;20207;-45
2022/11/19 08:26:39;;;;;;;6.43;5.77;;;;;;;;;;5070938;28;20233;-45
2022/11/19 08:29:05;;;;;;;10.00;7.53;;;;;;;;;;5071243;28;20434;-44
2022/11/19 08:31:31;;;;;;;10.03;7.37;;;;;;;;;;5070384;28;20800;-45
2022/11/19 08:33:57;;;;;;;7.43;6.13;;;;;;;;;;5070907;28;20516;-44
2022/11/19 08:36:23;;;;;;;6.47;5.80;;;;;;;;;;5070449;28;20570;-45
2022/11/19 08:38:49;;;;;;;5.87;5.17;;;;;;;;;;5070729;28;20648;-44
2022/11/19 08:44:02;;;;;;;6.13;4.87;;;;;;;;;;5070890;28;20495;-45
2022/11/19 08:46:28;;;;;;;5.23;4.73;;;;;;;;;;5070064;28;20433;-46
2022/11/19 08:48:54;;;;;;;5.00;4.50;;;;;;;;;;5070177;28;20352;-46
2022/11/19 08:51:20;;;;;;;5.83;5.10;;;;;;;;;;5069991;28;20214;-46
2022/11/19 08:53:46;;;;;;;6.00;5.40;;;;;;;;;;5070019;28;20203;-47
2022/11/19 08:56:12;;;;;;;4.80;4.40;;;;;;;;;;5072913;28;20267;-51
2022/11/19 08:58:40;;;;;;;5.70;4.70;;;;;;;;;;5074096;28;20231;-46
2022/11/19 09:01:09;;;;;;;5.07;4.57;;;;;;;;;;5074154;28;20608;-46
2022/11/19 09:03:35;;;;;;;4.67;4.27;;;;;;;;;;5074691;28;20262;-46
2022/11/19 09:06:01;;;;;;;4.30;3.90;;;;;;;;;;5073356;28;20196;-45
2022/11/19 09:08:28;;;;;;;5.57;3.80;;;;;;;;;;5073468;28;20219;-45
2022/11/19 09:10:54;;;;;;;4.13;3.73;;;;;;;;;;5074157;28;20200;-46
2022/11/19 09:13:20;;;;;;;4.20;3.80;;;;;;;;;;5074348;28;20710;-46
2022/11/19 09:15:48;;;;;;;4.53;3.90;;;;;;;;;;5074326;28;20273;-46
2022/11/19 09:18:15;;;;;;;3.60;3.30;;;;;;;;;;5074304;28;20701;-46
2022/11/19 09:20:41;;;;;;;4.67;3.50;;;;;;;;;;5074315;28;20197;-46
2022/11/19 09:23:07;;;;;;;3.80;3.40;;;;;;;;;;5073976;28;20220;-45
2022/11/19 09:25:33;;;;;;;3.60;3.30;;;;;;;;;;5074481;28;20188;-46
2022/11/19 09:28:00;;;;;;;3.77;3.47;;;;;;;;;;5073286;28;20361;-46
2022/11/19 09:30:26;;;;;;;3.50;3.20;;;;;;;;;;5074206;28;20265;-46
2022/11/19 09:32:53;;;;;;;3.43;3.13;;;;;;;;;;5073993;28;20245;-45
2022/11/19 09:35:19;;;;;;;4.10;3.70;;;;;;;;;;5073880;28;20592;-45
2022/11/19 09:37:45;;;;;;;4.07;3.67;;;;;;;;;;5073905;28;20563;-46
2022/11/19 09:40:16;;;;;;;5.37;3.90;;;;;;;;;;5073854;28;20745;-45
2022/11/19 09:42:44;;;;;;;4.23;3.83;;;;;;;;;;5073639;28;20206;-46
2022/11/19 09:45:16;;;;;;;4.30;3.90;;;;;;;;;;5074043;28;20192;-46
2022/11/19 09:47:50;;;;;;;3.50;3.20;;;;;;;;;;5073785;28;20188;-44
2022/11/19 09:50:18;;;;;;;4.20;3.80;;;;;;;;;;5073533;28;20245;-44
2022/11/19 09:52:48;;;;;;;4.77;3.50;;;;;;;;;;5072477;28;20199;-46
2022/11/19 09:55:19;;;;;;;4.53;3.27;;;;;;;;;;5073442;28;20818;-45
2022/11/19 09:57:48;;;;;;;4.17;3.77;;;;;;;;;;5073396;28;20194;-46
2022/11/19 10:00:18;;;;;;;3.00;2.80;;;;;;;;;;5073452;28;20266;-46
2022/11/19 10:02:45;;;;;;;8.77;3.87;;;;;;;;;;5073344;28;20199;-47
2022/11/19 10:05:14;;;;;;;3.73;3.30;;;;;;;;;;5073316;28;20191;-46
2022/11/19 10:07:47;;;;;;;4.73;3.40;;;;;;;;;;5072385;28;20257;-46
2022/11/19 10:10:22;;;;;;;3.60;3.30;;;;;;;;;;5073288;28;20251;-46
2022/11/19 10:13:10;;;;;;;4.43;3.23;;;;;;;;;;5073438;28;20206;-44
2022/11/19 10:15:38;;;;;;;4.23;3.83;;;;;;;;;;5073092;28;20691;-44
2022/11/19 10:18:10;;;;;;;3.83;3.10;;;;;;;;;;5073173;28;20246;-45
2022/11/19 10:20:46;;;;;;;3.77;3.37;;;;;;;;;;5073306;28;20250;-46
2022/11/19 10:23:16;;;;;;;3.17;2.90;;;;;;;;;;5073190;28;20732;-45
2022/11/19 10:25:43;;;;;;;3.33;3.03;;;;;;;;;;5072830;28;20253;-46
2022/11/19 10:28:12;;;;;;;4.60;3.20;;;;;;;;;;5073398;28;20199;-45
2022/11/19 10:30:39;;;;;;;3.50;3.20;;;;;;;;;;5071181;28;20638;-46
2022/11/19 10:33:10;;;;;;;3.80;3.40;;;;;;;;;;5072352;28;20191;-44
2022/11/19 10:35:38;;;;;;;3.27;2.97;;;;;;;;;;5072987;28;20227;-46
2022/11/19 10:38:06;;;;;;;3.40;3.10;;;;;;;;;;5072933;28;20211;-45
2022/11/19 10:40:36;;;;;;;4.50;3.57;;;;;;;;;;5072836;28;20226;-46
2022/11/19 10:43:07;;;;;;;4.00;3.70;;;;;;;;;;5072773;28;20200;-45
2022/11/19 10:45:34;;;;;;;3.83;3.53;;;;;;;;;;5072743;28;20249;-45
2022/11/19 10:48:02;;;;;;;4.50;4.00;;;;;;;;;;5072337;28;20649;-45
2022/11/19 10:50:28;;;;;;;4.67;3.63;;;;;;;;;;5072344;28;20239;-44
2022/11/19 10:52:56;;;;;;;3.77;3.37;;;;;;;;;;5071592;28;20720;-45
2022/11/19 10:55:23;;;;;;;3.20;2.90;;;;;;;;;;5071593;28;20235;-45
2022/11/19 10:57:52;;;;;;;3.73;3.20;;;;;;;;;;5072461;28;20273;-46
2022/11/19 11:00:18;;;;;;;5.53;3.53;;;;;;;;;;5072457;28;20196;-45
2022/11/19 11:02:46;;;;;;;3.07;2.80;;;;;;;;;;5072469;28;20205;-46
2022/11/19 11:05:14;;;;;;;3.03;2.73;;;;;;;;;;5072660;28;20195;-45
2022/11/19 11:07:48;;;;;;;3.50;3.20;;;;;;;;;;5071445;28;20199;-44
2022/11/19 11:10:32;;;;;;;3.40;3.10;;;;;;;;;;5072201;28;20205;-45
2022/11/19 11:15:51;;;;;;;3.73;3.37;;;;;;;;;;5071851;28;20234;-46
2022/11/19 11:18:19;;;;;;;4.13;3.10;;;;;;;;;;5065506;28;20309;-46
2022/11/19 11:20:46;;;;;;;5.77;3.77;;;;;;;;;;5071602;28;20199;-46
2022/11/19 11:23:14;;;;;;;2.83;2.53;;;;;;;;;;5071042;28;20361;-46
2022/11/19 11:25:41;;;;;;;3.70;3.30;;;;;;;;;;5071996;28;20206;-46
2022/11/19 11:28:13;;;;;;;3.20;2.90;;;;;;;;;;5071677;28;20320;-45
2022/11/19 11:30:50;;;;;;;3.30;3.00;;;;;;;;;;5070654;28;20211;-46
2022/11/19 11:33:24;;;;;;;3.00;2.80;;;;;;;;;;5071882;28;20594;-46
2022/11/19 11:35:51;;;;;;;3.17;2.90;;;;;;;;;;5071266;28;20808;-46
2022/11/19 11:38:19;;;;;;;4.00;3.37;;;;;;;;;;5071625;28;20670;-46
2022/11/19 11:40:53;;;;;;;4.10;3.07;;;;;;;;;;5071051;28;20196;-46
2022/11/19 11:43:20;;;;;;;4.43;4.03;;;;;;;;;;5071081;28;20735;-46
2022/11/19 11:45:46;;;;;;;4.10;3.07;;;;;;;;;;5071320;28;20204;-46
2022/11/19 11:48:18;;;;;;;5.10;3.53;;;;;;;;;;5070523;28;20707;-47
2022/11/19 11:50:44;;;;;;;4.23;3.63;;;;;;;;;;5071531;28;20195;-46
2022/11/19 11:53:10;;;;;;;3.70;3.30;;;;;;;;;;5071574;28;20196;-46
2022/11/19 11:55:37;;;;;;;4.90;4.10;;;;;;;;;;5071087;28;20224;-46
2022/11/19 11:58:04;;;;;;;3.90;3.60;;;;;;;;;;5071384;28;20204;-46
2022/11/19 12:00:33;;;;;;;6.57;6.07;;;;;;;;;;5071520;28;20192;-46
2022/11/19 12:03:00;;;;;;;3.73;3.43;;;;;;;;;;5071324;28;20198;-45
2022/11/19 12:05:28;;;;;;;3.23;2.93;;;;;;;;;;5067904;28;20198;-47
2022/11/19 12:08:02;;;;;;;3.73;3.20;;;;;;;;;;5071286;28;20226;-47
2022/11/19 12:10:32;;;;;;;3.97;3.37;;;;;;;;;;5071469;28;20205;-45
2022/11/19 12:13:13;;;;;;;4.03;3.50;;;;;;;;;;5071436;28;20188;-46
2022/11/19 12:15:44;;;;;;;3.00;2.67;;;;;;;;;;5071216;28;20248;-46
2022/11/19 12:18:11;;;;;;;4.37;3.40;;;;;;;;;;5071399;28;20203;-46
2022/11/19 12:20:42;;;;;;;3.30;3.00;;;;;;;;;;5071016;28;20191;-46
2022/11/19 12:23:26;;;;;;;3.63;3.13;;;;;;;;;;5071253;28;20211;-46
2022/11/19 12:26:01;;;;;;;3.43;3.13;;;;;;;;;;5071054;28;20206;-46
2022/11/19 12:28:31;;;;;;;3.87;2.83;;;;;;;;;;5071252;28;20291;-46
2022/11/19 12:31:13;;;;;;;3.33;3.00;;;;;;;;;;5073296;28;20274;-47
2022/11/19 12:33:47;;;;;;;3.23;2.90;;;;;;;;;;5072515;28;20290;-47
2022/11/19 12:36:18;;;;;;;3.10;2.80;;;;;;;;;;5075531;28;20330;-46
2022/11/19 12:38:49;;;;;;;4.60;3.40;;;;;;;;;;5075438;28;20203;-47
2022/11/19 12:41:34;;;;;;;3.50;3.20;;;;;;;;;;5075525;28;20199;-48
2022/11/19 12:44:04;;;;;;;3.60;3.30;;;;;;;;;;5075232;28;20203;-47
2022/11/19 12:46:42;;;;;;;3.10;2.80;;;;;;;;;;5075452;28;20199;-47
2022/11/19 12:49:28;;;;;;;3.93;3.10;;;;;;;;;;5075119;28;20235;-48
2022/11/19 12:52:01;;;;;;;3.50;3.20;;;;;;;;;;5075060;28;20726;-47
2022/11/19 12:54:32;;;;;;;3.90;3.50;;;;;;;;;;5075232;28;20280;-46
2022/11/19 12:57:05;;;;;;;3.90;3.50;;;;;;;;;;5075103;28;20195;-48
2022/11/19 12:59:40;;;;;;;4.07;3.67;;;;;;;;;;5075081;28;20279;-47
2022/11/19 13:02:17;;;;;;;15.40;13.80;;;;;;;;;;5075039;28;20306;-48
2022/11/19 13:04:47;;;;;;;11.60;10.30;;;;;;;;;;5074986;28;20661;-48
2022/11/19 13:07:17;;;;;;;13.43;12.07;;;;;;;;;;5075136;28;20236;-48
2022/11/19 13:09:47;;;;;;;10.03;8.37;;;;;;;;;;5075010;28;20222;-48
2022/11/19 13:12:20;;;;;;;20.43;18.20;;;;;;;;;;5073567;28;20580;-46
2022/11/19 13:14:55;;;;;;;9.87;8.87;;;;;;;;;;5074468;28;20203;-48
2022/11/19 13:17:28;;;;;;;5.60;5.00;;;;;;;;;;5074816;28;20573;-47
2022/11/19 13:19:57;;;;;;;6.30;4.13;;;;;;;;;;5074524;28;20215;-47
2022/11/19 13:22:25;;;;;;;4.60;4.20;;;;;;;;;;5074736;28;20191;-47
2022/11/19 13:24:57;;;;;;;4.97;4.50;;;;;;;;;;5074247;28;20206;-48
2022/11/19 13:27:25;;;;;;;4.83;4.40;;;;;;;;;;5074481;28;20191;-45
2022/11/19 13:29:53;;;;;;;4.97;4.03;;;;;;;;;;5074283;28;20196;-46
2022/11/19 13:32:22;;;;;;;5.87;4.97;;;;;;;;;;5074097;28;20733;-46
2022/11/19 13:34:55;;;;;;;5.70;5.20;;;;;;;;;;5074168;28;20200;-47
2022/11/19 13:37:27;;;;;;;6.83;5.27;;;;;;;;;;5074252;28;20253;-47
2022/11/19 13:39:55;;;;;;;5.77;5.17;;;;;;;;;;5074179;28;20401;-47
2022/11/19 13:45:12;;;;;;;7.90;6.17;;;;;;;;;;5074223;28;20755;-45
2022/11/19 13:47:43;;;;;;;6.50;5.80;;;;;;;;;;5074209;28;20195;-47
2022/11/19 13:50:15;;;;;;;5.10;4.60;;;;;;;;;;5074058;28;20235;-46
2022/11/19 13:52:44;;;;;;;5.33;4.83;;;;;;;;;;5074124;28;20219;-46
2022/11/19 13:55:21;;;;;;;6.00;5.30;;;;;;;;;;5073874;28;20231;-46
2022/11/19 13:57:47;;;;;;;5.40;4.67;;;;;;;;;;5073898;28;20658;-45
2022/11/19 14:00:21;;;;;;;5.00;4.37;;;;;;;;;;5074012;28;20208;-45
2022/11/19 14:03:06;;;;;;;5.37;4.17;;;;;;;;;;5073874;28;20560;-47
2022/11/19 14:05:43;;;;;;;4.87;4.37;;;;;;;;;;5064192;28;20195;-46
2022/11/19 14:08:16;;;;;;;5.40;4.90;;;;;;;;;;5074022;28;20318;-46
2022/11/19 14:10:45;;;;;;;6.07;5.00;;;;;;;;;;5073684;28;20200;-46
2022/11/19 14:13:32;;;;;;;6.30;4.27;;;;;;;;;;5073846;28;20199;-47
2022/11/19 14:27:36;;;;;;;8.13;5.83;;;;;;;;;;5073478;28;20690;-47
2022/11/19 14:30:03;;;;;;;5.00;4.50;;;;;;;;;;5073315;28;20660;-46
2022/11/19 14:32:30;;;;;;;5.37;4.40;;;;;;;;;;5073314;28;20195;-47
2022/11/19 14:35:14;;;;;;;5.57;4.37;;;;;;;;;;5073053;28;20570;-47
2022/11/19 14:37:44;;;;;;;7.20;5.20;;;;;;;;;;5073451;28;20204;-46
2022/11/19 14:40:15;;;;;;;6.87;5.07;;;;;;;;;;5073198;28;20203;-47
2022/11/19 14:44:07;;;;;;;5.20;4.57;;;;;;;;;;5073136;28;20286;-46
2022/11/19 14:46:05;;;;;;;6.60;5.87;;;;;;;;;;5072976;28;20204;-46
2022/11/19 14:48:32;;;;;;;7.30;5.40;;;;;;;;;;5072885;28;20700;-46
2022/11/19 14:51:01;;;;;;;5.83;5.23;;;;;;;;;;5072846;28;20203;-46
2022/11/19 14:53:28;;;;;;;7.00;5.90;;;;;;;;;;5072600;28;20686;-47
2022/11/19 14:55:55;;;;;;;7.40;6.37;;;;;;;;;;5072695;28;20323;-46
2022/11/19 14:58:23;;;;;;;8.37;6.70;;;;;;;;;;5072682;28;20294;-46
2022/11/19 15:00:50;;;;;;;6.83;6.13;;;;;;;;;;5072590;28;20669;-46
2022/11/19 15:03:20;;;;;;;7.37;6.57;;;;;;;;;;5072741;28;20196;-46
2022/11/19 15:05:46;;;;;;;6.77;6.00;;;;;;;;;;5072626;28;20257;-46
2022/11/19 15:08:42;;;;;;;6.70;6.10;;;;;;;;;;5072408;28;20990;-46
2022/11/19 15:11:09;;;;;;;6.70;6.03;;;;;;;;;;5072591;28;20442;-46
2022/11/19 15:13:36;;;;;;;8.43;6.47;;;;;;;;;;5072604;28;20220;-46
2022/11/19 15:16:05;;;;;;;8.63;7.23;;;;;;;;;;5072262;28;20555;-45
2022/11/19 15:19:02;;;;;;;8.00;6.97;;;;;;;;;;5072432;28;20295;-46
2022/11/19 15:21:46;;;;;;;6.93;6.23;;;;;;;;;;5072422;28;20434;-47
2022/11/19 15:24:21;;;;;;;7.23;6.40;;;;;;;;;;5072355;28;20442;-47
2022/11/19 15:26:51;;;;;;;7.63;6.23;;;;;;;;;;5072185;28;20989;-45
2022/11/19 15:29:21;;;;;;;6.93;6.23;;;;;;;;;;5072346;28;20451;-45
2022/11/19 15:31:53;;;;;;;7.87;6.10;;;;;;;;;;5072141;28;20794;-46
2022/11/19 15:34:27;;;;;;;6.60;5.90;;;;;;;;;;5072244;28;20442;-46